createdAt,value
2023-09-15T00:01:45.900Z,50.63
2023-09-15T00:04:13.328Z,49.95
2023-09-15T00:06:40.790Z,50.24
2023-09-15T00:09:16.392Z,50.57
2023-09-15T00:11:43.669Z,50.58
2023-09-15T00:14:12.154Z,50.65
2023-09-15T00:16:40.942Z,50.89
2023-09-15T00:19:09.201Z,50.75
2023-09-15T00:21:35.739Z,50.76
2023-09-15T00:24:02.962Z,50.85
2023-09-15T00:26:33.461Z,51.31
2023-09-15T00:29:03.779Z,51.65
2023-09-15T00:31:30.468Z,51.05
2023-09-15T00:33:56.956Z,51.16
2023-09-15T00:36:23.595Z,51.32
2023-09-15T00:38:50.440Z,51.28
2023-09-15T00:41:16.993Z,51.34
2023-09-15T00:43:43.398Z,51.52
2023-09-15T00:46:12.238Z,52.16
2023-09-15T00:48:40.876Z,51.91
2023-09-15T00:51:08.884Z,51.85
2023-09-15T00:53:40.055Z,52.27
2023-09-15T00:56:09.243Z,52.09
2023-09-15T00:58:39.953Z,52.15
2023-09-15T01:01:07.715Z,51.99
2023-09-15T01:03:39.202Z,52.58
2023-09-15T01:06:07.322Z,52.31
2023-09-15T01:08:35.545Z,52.31
2023-09-15T01:11:05.483Z,52.34
2023-09-15T01:13:34.039Z,52.59
2023-09-15T01:16:15.715Z,53.24
2023-09-15T01:18:59.234Z,53.13
2023-09-15T01:21:41.920Z,53.24
2023-09-15T01:24:30.600Z,53.09
2023-09-15T01:27:07.397Z,52.99
2023-09-15T01:29:54.957Z,53.20
2023-09-15T01:32:23.253Z,52.38
2023-09-15T01:34:52.668Z,52.69
2023-09-15T01:37:20.768Z,52.72
2023-09-15T01:39:47.803Z,52.79
2023-09-15T01:42:14.349Z,52.93
2023-09-15T01:44:40.789Z,52.97
2023-09-15T01:47:10.083Z,53.34
2023-09-15T01:49:38.961Z,53.62
2023-09-15T01:52:06.085Z,53.27
2023-09-15T01:54:32.597Z,53.55
2023-09-15T01:56:59.339Z,53.27
2023-09-15T01:59:25.899Z,53.15
2023-09-15T02:01:52.511Z,53.14
2023-09-15T02:04:19.129Z,53.48
2023-09-15T02:06:45.612Z,53.53
2023-09-15T02:09:15.620Z,53.72
2023-09-15T02:11:42.075Z,53.01
2023-09-15T02:14:08.484Z,53.47
2023-09-15T02:16:35.012Z,53.05
2023-09-15T02:19:01.816Z,53.37
2023-09-15T02:21:28.281Z,53.58
2023-09-15T02:23:54.725Z,53.49
2023-09-15T02:26:22.376Z,53.69
2023-09-15T02:28:49.103Z,53.60
2023-09-15T02:31:15.872Z,53.60
2023-09-15T02:33:42.407Z,53.54
2023-09-15T02:36:09.010Z,53.66
2023-09-15T02:38:35.877Z,53.60
2023-09-15T02:41:02.347Z,53.54
2023-09-15T02:43:28.793Z,53.88
2023-09-15T02:45:55.398Z,53.86
2023-09-15T02:48:22.289Z,53.76
2023-09-15T02:50:49.256Z,53.73
2023-09-15T02:53:15.773Z,53.69
2023-09-15T02:55:42.224Z,53.54
2023-09-15T02:58:08.786Z,53.50
2023-09-15T03:00:35.254Z,53.51
2023-09-15T03:03:04.998Z,53.69
2023-09-15T03:05:31.698Z,53.60
2023-09-15T03:07:58.175Z,53.73
2023-09-15T03:10:24.622Z,53.93
2023-09-15T03:12:52.713Z,53.87
2023-09-15T03:15:19.405Z,53.83
2023-09-15T03:17:45.954Z,53.97
2023-09-15T03:20:16.895Z,53.72
2023-09-15T03:22:44.333Z,53.80
2023-09-15T03:25:11.638Z,53.96
2023-09-15T03:27:38.117Z,53.94
2023-09-15T03:30:05.735Z,54.26
2023-09-15T03:32:32.693Z,54.13
2023-09-15T03:34:59.376Z,54.23
2023-09-15T03:37:26.987Z,54.20
2023-09-15T03:39:53.735Z,54.14
2023-09-15T03:42:20.237Z,54.03
2023-09-15T03:44:46.982Z,54.10
2023-09-15T03:47:13.588Z,54.17
2023-09-15T03:49:40.062Z,54.25
2023-09-15T03:52:06.769Z,54.43
2023-09-15T03:54:33.424Z,54.50
2023-09-15T03:56:59.868Z,54.37
2023-09-15T03:59:26.310Z,54.38
2023-09-15T04:01:52.948Z,54.70
2023-09-15T04:04:19.505Z,54.47
2023-09-15T04:06:46.012Z,54.43
2023-09-15T04:09:13.553Z,54.43
2023-09-15T04:11:40.847Z,54.54
2023-09-15T04:14:08.163Z,54.57
2023-09-15T04:16:36.763Z,54.51
2023-09-15T04:19:03.894Z,54.62
2023-09-15T04:21:30.560Z,54.51
2023-09-15T04:23:57.009Z,54.37
2023-09-15T04:26:23.442Z,54.67
2023-09-15T04:28:49.982Z,54.73
2023-09-15T04:31:16.507Z,54.81
2023-09-15T04:33:43.043Z,54.77
2023-09-15T04:36:09.489Z,55.03
2023-09-15T04:38:35.963Z,54.99
2023-09-15T04:41:02.421Z,54.98
2023-09-15T04:43:31.042Z,55.01
2023-09-15T04:45:58.339Z,55.10
2023-09-15T04:48:24.872Z,55.27
2023-09-15T04:50:51.398Z,55.38
2023-09-15T04:53:18.000Z,55.63
2023-09-15T04:55:44.530Z,55.38
2023-09-15T05:06:49.756Z,55.27
2023-09-15T05:09:21.472Z,55.61
2023-09-15T05:11:48.226Z,55.61
2023-09-15T05:14:15.013Z,55.72
2023-09-15T05:16:41.550Z,55.72
2023-09-15T05:19:08.080Z,56.01
2023-09-15T05:21:34.620Z,56.20
2023-09-15T05:24:01.069Z,56.39
2023-09-15T05:26:27.598Z,56.58
2023-09-15T05:28:54.138Z,56.63
2023-09-15T05:31:25.056Z,56.56
2023-09-15T05:33:51.655Z,56.61
2023-09-15T05:36:18.219Z,56.79
2023-09-15T05:38:45.078Z,56.94
2023-09-15T05:41:11.833Z,56.89
2023-09-15T05:43:38.285Z,56.99
2023-09-15T05:46:04.859Z,57.03
2023-09-15T05:48:31.346Z,57.03
2023-09-15T05:50:57.950Z,57.00
2023-09-15T05:53:24.475Z,57.16
2023-09-15T05:55:51.059Z,57.36
2023-09-15T05:58:17.578Z,57.25
2023-09-15T06:00:44.306Z,57.02
2023-09-15T06:03:10.894Z,57.42
2023-09-15T06:05:37.515Z,57.16
2023-09-15T06:08:09.259Z,57.56
2023-09-15T06:10:41.196Z,58.07
2023-09-15T06:13:08.133Z,57.65
2023-09-15T06:15:36.053Z,57.72
2023-09-15T06:18:03.190Z,57.90
2023-09-15T06:20:32.277Z,57.81
2023-09-15T06:22:58.928Z,58.07
2023-09-15T06:25:25.401Z,57.96
2023-09-15T06:27:52.009Z,58.23
2023-09-15T06:30:18.581Z,58.08
2023-09-15T06:32:45.118Z,58.15
2023-09-15T06:35:14.105Z,58.17
2023-09-15T06:37:41.671Z,58.35
2023-09-15T06:40:08.876Z,58.26
2023-09-15T06:42:35.746Z,58.26
2023-09-15T06:45:02.277Z,58.88
2023-09-15T06:47:28.901Z,58.55
2023-09-15T06:49:55.726Z,58.63
2023-09-15T06:52:22.411Z,58.79
2023-09-15T06:54:49.037Z,58.82
2023-09-15T06:57:15.594Z,58.75
2023-09-15T06:59:42.135Z,58.94
2023-09-15T07:02:08.611Z,59.05
2023-09-15T07:04:39.633Z,58.94
2023-09-15T07:07:06.393Z,58.88
2023-09-15T07:09:33.120Z,59.08
2023-09-15T07:11:59.572Z,59.03
2023-09-15T07:14:26.385Z,58.99
2023-09-15T07:16:52.994Z,59.08
2023-09-15T07:19:19.855Z,59.04
2023-09-15T07:21:46.380Z,58.99
2023-09-15T07:24:12.966Z,58.88
2023-09-15T07:26:39.716Z,58.99
2023-09-15T07:29:06.392Z,58.98
2023-09-15T07:31:36.300Z,59.28
2023-09-15T07:34:04.561Z,58.76
2023-09-15T07:36:31.608Z,58.63
2023-09-15T07:38:58.172Z,58.66
2023-09-15T07:41:25.723Z,58.43
2023-09-15T07:43:54.790Z,58.50
2023-09-15T07:46:21.739Z,58.25
2023-09-15T07:48:48.268Z,58.30
2023-09-15T07:51:16.807Z,58.11
2023-09-15T07:53:43.749Z,57.94
2023-09-15T07:56:10.356Z,58.09
2023-09-15T07:58:37.424Z,58.01
2023-09-15T08:01:05.114Z,57.92
2023-09-15T08:03:31.571Z,57.75
2023-09-15T08:05:59.859Z,57.96
2023-09-15T08:08:27.572Z,57.56
2023-09-15T08:10:54.051Z,57.34
2023-09-15T08:13:20.529Z,57.65
2023-09-15T08:15:47.175Z,57.50
2023-09-15T08:18:13.703Z,57.11
2023-09-15T08:20:40.293Z,57.23
2023-09-15T08:23:06.747Z,57.32
2023-09-15T08:25:33.322Z,57.43
2023-09-15T08:28:00.771Z,57.70
2023-09-15T08:30:27.450Z,57.64
2023-09-15T08:32:54.050Z,57.59
2023-09-15T08:35:20.818Z,57.25
2023-09-15T08:37:47.369Z,57.45
2023-09-15T08:40:13.936Z,57.26
2023-09-15T08:42:40.750Z,57.09
2023-09-15T08:45:08.282Z,57.19
2023-09-15T08:47:39.227Z,57.35
2023-09-15T08:50:06.526Z,57.57
2023-09-15T08:52:34.532Z,57.00
2023-09-15T08:55:03.079Z,56.90
2023-09-15T08:57:35.003Z,57.20
2023-09-15T09:00:01.941Z,56.87
2023-09-15T09:02:29.509Z,56.61
2023-09-15T09:04:56.017Z,56.89
2023-09-15T09:07:23.206Z,57.03
2023-09-15T09:09:51.075Z,56.89
2023-09-15T09:12:21.879Z,56.70
2023-09-15T09:14:50.689Z,57.20
2023-09-15T09:17:19.794Z,57.48
2023-09-15T09:19:48.235Z,57.00
2023-09-15T09:22:20.665Z,57.40
2023-09-15T09:24:57.519Z,57.11
2023-09-15T09:27:34.217Z,56.97
2023-09-15T09:30:01.038Z,56.93
2023-09-15T09:32:27.735Z,56.83
2023-09-15T09:34:54.815Z,56.96
2023-09-15T09:37:27.216Z,56.82
2023-09-15T09:39:54.793Z,56.71
2023-09-15T09:42:24.860Z,56.61
2023-09-15T09:44:53.545Z,56.53
2023-09-15T09:47:22.821Z,56.49
2023-09-15T09:49:52.690Z,56.80
2023-09-15T09:52:19.237Z,56.63
2023-09-15T09:54:50.585Z,56.80
2023-09-15T09:57:18.006Z,56.81
2023-09-15T09:59:45.461Z,56.69
2023-09-15T10:02:12.648Z,56.07
2023-09-15T10:04:39.198Z,56.13
2023-09-15T10:07:05.986Z,55.99
2023-09-15T10:09:33.075Z,56.15
2023-09-15T10:12:00.392Z,56.49
2023-09-15T10:14:27.293Z,56.24
2023-09-15T10:16:54.244Z,56.25
2023-09-15T10:19:21.555Z,55.90
2023-09-15T10:21:48.393Z,55.91
2023-09-15T10:24:16.773Z,55.25
2023-09-15T10:26:43.448Z,55.23
2023-09-15T10:29:16.582Z,53.88
2023-09-15T10:31:47.625Z,52.95
2023-09-15T10:34:16.074Z,53.86
2023-09-15T10:36:45.680Z,52.71
2023-09-15T10:39:16.154Z,53.72
2023-09-15T10:41:44.518Z,53.89
2023-09-15T10:44:11.869Z,53.24
2023-09-15T10:46:40.824Z,52.86
2023-09-15T10:49:18.269Z,52.12
2023-09-15T10:52:04.144Z,52.47
2023-09-15T10:54:36.157Z,51.13
2023-09-15T10:57:03.656Z,51.28
2023-09-15T10:59:30.301Z,51.52
2023-09-15T11:01:57.231Z,52.43
2023-09-15T11:04:23.953Z,51.92
2023-09-15T11:06:52.771Z,53.84
2023-09-15T11:09:20.283Z,53.27
2023-09-15T11:11:51.284Z,52.54
2023-09-15T11:14:23.008Z,51.23
2023-09-15T11:16:51.718Z,51.28
2023-09-15T11:19:19.591Z,49.15
2023-09-15T11:21:47.182Z,48.79
2023-09-15T11:24:14.488Z,47.17
2023-09-15T11:26:53.358Z,44.24
2023-09-15T11:29:27.527Z,41.38
2023-09-15T11:31:55.313Z,42.04
2023-09-15T11:34:22.175Z,42.08
2023-09-15T11:36:50.355Z,40.16
2023-09-15T11:39:17.438Z,39.13
2023-09-15T11:41:54.721Z,39.22
2023-09-15T11:44:23.003Z,38.11
2023-09-15T11:46:53.979Z,36.31
2023-09-15T11:49:20.788Z,36.86
2023-09-15T11:51:47.861Z,35.93
2023-09-15T11:54:14.391Z,35.55
2023-09-15T11:56:41.032Z,34.46
2023-09-15T11:59:08.160Z,33.61
2023-09-15T12:01:35.766Z,32.80
2023-09-15T12:04:02.879Z,32.49
2023-09-15T12:06:29.697Z,32.38
2023-09-15T12:08:56.320Z,31.24
2023-09-15T12:11:24.132Z,30.93
2023-09-15T12:13:53.682Z,31.02
2023-09-15T12:16:26.323Z,31.01
2023-09-15T12:18:53.060Z,30.89
2023-09-15T12:21:25.857Z,30.97
2023-09-15T12:23:55.461Z,30.46
2023-09-15T12:26:23.199Z,30.61
2023-09-15T12:28:50.160Z,29.06
2023-09-15T12:31:21.965Z,28.11
2023-09-15T12:33:57.513Z,28.43
2023-09-15T12:36:24.203Z,28.31
2023-09-15T12:38:53.413Z,27.99
2023-09-15T12:41:19.938Z,27.61
2023-09-15T12:43:46.946Z,28.18
2023-09-15T12:46:13.804Z,27.29
2023-09-15T12:48:40.530Z,27.08
2023-09-15T12:51:07.081Z,27.08
2023-09-15T12:53:33.637Z,26.39
2023-09-15T12:56:01.475Z,26.82
2023-09-15T12:58:28.124Z,26.25
2023-09-15T13:00:54.669Z,26.01
2023-09-15T13:03:23.436Z,25.74
2023-09-15T13:05:50.565Z,25.67
2023-09-15T13:08:17.064Z,25.98
2023-09-15T13:10:43.591Z,25.51
2023-09-15T13:13:10.182Z,24.86
2023-09-15T13:15:37.389Z,25.41
2023-09-15T13:18:04.447Z,25.23
2023-09-15T13:20:31.011Z,25.34
2023-09-15T13:22:57.613Z,24.93
2023-09-15T13:25:24.165Z,24.42
2023-09-15T13:27:50.620Z,23.99
2023-09-15T13:30:17.167Z,24.32
2023-09-15T13:32:46.281Z,23.49
2023-09-15T13:35:14.314Z,23.76
2023-09-15T13:37:41.111Z,22.81
2023-09-15T13:40:07.901Z,24.13
2023-09-15T13:42:37.152Z,22.95
2023-09-15T13:45:05.281Z,24.18
2023-09-15T13:47:33.776Z,23.02
2023-09-15T13:50:01.525Z,22.92
2023-09-15T13:52:31.637Z,24.37
2023-09-15T13:54:59.356Z,23.13
2023-09-15T13:57:29.002Z,23.49
2023-09-15T13:59:56.883Z,22.72
2023-09-15T14:02:25.045Z,23.67
2023-09-15T14:04:52.064Z,23.18
2023-09-15T14:07:18.789Z,22.35
2023-09-15T14:09:45.319Z,22.45
2023-09-15T14:12:13.006Z,21.87
2023-09-15T14:14:40.319Z,21.43
2023-09-15T14:17:08.991Z,21.15
2023-09-15T14:19:35.835Z,21.21
2023-09-15T14:22:03.479Z,21.30
2023-09-15T14:24:33.977Z,21.80
2023-09-15T14:27:02.158Z,21.48
2023-09-15T14:29:29.078Z,21.32
2023-09-15T14:31:56.320Z,21.15
2023-09-15T14:34:22.864Z,21.17
2023-09-15T14:36:49.417Z,21.51
2023-09-15T14:39:17.151Z,21.13
2023-09-15T14:41:44.100Z,21.14
2023-09-15T14:44:21.903Z,21.05
2023-09-15T14:46:48.766Z,21.40
2023-09-15T14:49:15.708Z,22.11
2023-09-15T14:51:43.005Z,21.83
2023-09-15T14:54:10.289Z,20.88
2023-09-15T14:56:37.511Z,21.32
2023-09-15T14:59:04.540Z,22.06
2023-09-15T15:01:31.227Z,21.84
2023-09-15T15:03:57.840Z,21.20
2023-09-15T15:06:24.517Z,20.87
2023-09-15T15:08:51.259Z,20.65
2023-09-15T15:11:18.166Z,20.95
2023-09-15T15:13:52.285Z,20.93
2023-09-15T15:16:19.086Z,21.38
2023-09-15T15:18:46.535Z,21.31
2023-09-15T15:21:13.646Z,21.28
2023-09-15T15:23:40.213Z,21.48
2023-09-15T15:26:08.360Z,21.30
2023-09-15T15:28:36.253Z,21.84
2023-09-15T15:31:03.026Z,21.71
2023-09-15T15:33:29.813Z,21.44
2023-09-15T15:36:04.085Z,21.41
2023-09-15T15:38:30.680Z,21.14
2023-09-15T15:41:05.001Z,21.99
2023-09-15T15:43:33.468Z,22.19
2023-09-15T15:46:02.263Z,22.78
2023-09-15T15:48:30.148Z,23.26
2023-09-15T15:50:57.009Z,24.39
2023-09-15T15:53:23.562Z,24.69
2023-09-15T15:55:50.599Z,25.25
2023-09-15T15:58:17.795Z,25.72
2023-09-15T16:00:45.648Z,26.52
2023-09-15T16:03:12.441Z,27.04
2023-09-15T16:05:41.709Z,27.48
2023-09-15T16:08:08.768Z,27.92
2023-09-15T16:10:35.723Z,28.38
2023-09-15T16:13:02.724Z,29.06
2023-09-15T16:15:29.456Z,29.16
2023-09-15T16:17:56.983Z,30.26
2023-09-15T16:20:23.611Z,30.14
2023-09-15T16:22:50.204Z,30.77
2023-09-15T16:25:17.440Z,31.15
2023-09-15T16:27:43.988Z,31.37
2023-09-15T16:30:10.911Z,31.78
2023-09-15T16:32:37.996Z,31.78
2023-09-15T16:35:05.104Z,32.15
2023-09-15T16:37:31.616Z,32.09
2023-09-15T16:39:58.951Z,32.94
2023-09-15T16:42:25.671Z,33.46
2023-09-15T16:44:52.301Z,33.99
2023-09-15T16:47:20.651Z,33.48
2023-09-15T16:49:47.391Z,34.93
2023-09-15T16:52:13.963Z,35.17
2023-09-15T16:54:40.606Z,34.79
2023-09-15T16:57:07.214Z,35.32
2023-09-15T16:59:36.136Z,35.04
2023-09-15T17:02:04.698Z,35.12
2023-09-15T17:04:51.001Z,36.24
2023-09-15T17:07:21.038Z,36.55
2023-09-15T17:09:47.583Z,36.76
2023-09-15T17:12:14.263Z,36.67
2023-09-15T17:14:40.874Z,36.70
2023-09-15T17:17:07.327Z,36.93
2023-09-15T17:19:34.444Z,37.61
2023-09-15T17:22:01.051Z,37.76
2023-09-15T17:24:27.582Z,37.68
2023-09-15T17:26:54.110Z,37.98
2023-09-15T17:29:20.838Z,38.18
2023-09-15T17:31:47.502Z,38.67
2023-09-15T17:34:15.724Z,38.42
2023-09-15T17:36:43.189Z,38.88
2023-09-15T17:39:11.246Z,38.93
2023-09-15T17:41:37.787Z,39.44
2023-09-15T17:44:04.311Z,39.54
2023-09-15T17:46:30.955Z,39.69
2023-09-15T17:48:58.314Z,40.08
2023-09-15T17:51:25.739Z,40.06
2023-09-15T17:53:52.520Z,40.17
2023-09-15T17:56:19.169Z,40.37
2023-09-15T17:58:45.719Z,40.37
2023-09-15T18:01:12.329Z,40.65
2023-09-15T18:03:38.824Z,41.06
2023-09-15T18:06:11.160Z,41.69
2023-09-15T18:08:38.340Z,41.15
2023-09-15T18:11:05.015Z,41.61
2023-09-15T18:13:31.588Z,41.75
2023-09-15T18:15:58.140Z,41.76
2023-09-15T18:18:24.751Z,42.02
2023-09-15T18:20:51.265Z,42.48
2023-09-15T18:23:18.476Z,42.30
2023-09-15T18:25:45.144Z,42.62
2023-09-15T18:28:11.654Z,43.10
2023-09-15T18:30:39.144Z,43.06
2023-09-15T18:33:05.769Z,43.28
2023-09-15T18:35:32.275Z,43.21
2023-09-15T18:38:01.549Z,43.78
2023-09-15T18:40:28.120Z,43.54
2023-09-15T18:42:54.951Z,44.14
2023-09-15T18:45:22.299Z,44.23
2023-09-15T18:47:49.427Z,44.26
2023-09-15T18:50:16.065Z,44.18
2023-09-15T18:52:42.518Z,44.36
2023-09-15T18:55:09.198Z,44.79
2023-09-15T18:57:38.734Z,44.77
2023-09-15T19:00:09.353Z,44.89
2023-09-15T19:02:37.842Z,44.07
2023-09-15T19:05:09.105Z,44.24
2023-09-15T19:07:36.440Z,44.24
2023-09-15T19:10:05.233Z,44.54
2023-09-15T19:12:31.913Z,45.10
2023-09-15T19:14:58.988Z,45.05
2023-09-15T19:17:32.786Z,45.26
2023-09-15T19:19:59.668Z,45.71
2023-09-15T19:22:26.204Z,45.68
2023-09-15T19:24:52.823Z,46.01
2023-09-15T19:27:19.452Z,46.16
2023-09-15T19:29:45.982Z,46.01
2023-09-15T19:32:12.522Z,46.28
2023-09-15T19:34:39.060Z,45.87
2023-09-15T19:37:05.528Z,46.02
2023-09-15T19:39:32.050Z,46.05
2023-09-15T19:41:58.555Z,45.95
2023-09-15T19:44:25.099Z,46.37
2023-09-15T19:46:51.632Z,46.81
2023-09-15T19:49:18.215Z,46.46
2023-09-15T19:51:44.923Z,46.74
2023-09-15T19:54:11.561Z,47.21
2023-09-15T19:56:38.062Z,46.98
2023-09-15T22:55:17.645Z,50.04
